• Join FlightAware (Why Join?)
  • Login
  • US Flag 
05:36AM EST


 

Airport Tracker/Info


-or-


 

Live Flight TrackerFlight Track Log ✈ N642WA ✈ 14-Apr-2014 ✈ KDTS - KPDK

Flight Track Log - Related Links

Times and Time Zones

All times are in EDT time to prevent confusion due to time zone crossing. See the N642WA flight status page for this flight to view local times or setup timezone preferences in your user account.

Time Position Orientation Groundspeed Altitude Reporting Facility
EDT Latitude Longitude Course Direction KTS MPH feet Rate Location/Type
09:49AM 30.6573 -86.3374 20° North  Level FlightAware Approximate
09:50AM 30.7020 -86.3215 16° North  Level FlightAware Approximate
09:51AM 30.7328 -86.2932 20° North  Level FlightAware Approximate
09:52AM 30.7768 -86.2747 20° North  Level FlightAware Approximate
09:53AM 30.8208 -86.2562 20° North  Level FlightAware Approximate
09:54AM 30.8648 -86.2377 20° North  Level FlightAware Approximate
09:54AM 30.7742 -86.2194 22° Northeast 173 199 8,900  Level Jacksonville Center
09:55AM 30.9088 -86.2192 20° North  Level FlightAware Approximate
09:55AM 30.8292 -86.1922 23° Northeast 202 232 8,900  Level Jacksonville Center
09:56AM 30.9528 -86.2007 20° North  Level FlightAware Approximate
09:56AM 30.8725 -86.1383 47° Northeast 221 254 8,900  Level Jacksonville Center
09:57AM 30.9968 -86.1821 20° North  Level FlightAware Approximate
09:57AM 30.9033 -86.0739 61° Northeast 221 254 8,900  Level Jacksonville Center
09:58AM 31.0407 -86.1632 22° Northeast  Level FlightAware Approximate
09:58AM 30.9297 -86.0119 64° Northeast 214 246 8,900  Level Jacksonville Center
09:59AM 31.0841 -86.1428 22° Northeast  Level FlightAware Approximate
09:59AM 30.9586 -85.9425 64° Northeast 214 246 8,900  Level Jacksonville Center
10:00AM 30.9764 -85.8994 64° Northeast 213 245 8,900  Level Jacksonville Center
10:01AM 31.0131 -85.8450 52° Northeast 207 238 8,900  Level Jacksonville Center
10:02AM 31.0658 -85.8272 16° North 193 222 8,900  Level Jacksonville Center
10:03AM 31.1183 -85.8119 24° Northeast 192 221 8,900  Level Jacksonville Center
10:04AM 31.1814 -85.7944 13° North 198 228 8,900  Level Jacksonville Center
10:05AM 31.2381 -85.7767 15° North 196 226 8,900 240 Level Jacksonville Center
10:12AM 31.5689 -85.6744 10° North 194 223 10,900 240 Climbing Atlanta Center
10:13AM 31.6192 -85.6606 13° North 194 223 11,000  Climbing Atlanta Center
10:14AM 31.6714 -85.6444 15° North 194 223 10,900  Descending Atlanta Center
10:16AM 31.7764 -85.6097 16° North 189 217 11,000  Climbing Atlanta Center
10:17AM 31.8267 -85.5933 15° North 189 217 10,900 -120 Descending Atlanta Center
10:18AM 31.8789 -85.5772 15° North 189 217 10,800  Descending Atlanta Center
10:19AM 31.8099 -85.4650 14° North  Level Estimated
10:19AM 31.9333 -85.5611 14° North 189 217 10,900  Level Atlanta Center
10:20AM 31.8565 -85.4394 15° North  Level Estimated
10:20AM 31.9858 -85.5447 15° North 189 217 10,800  Level Atlanta Center
10:21AM 31.9044 -85.4298 10° North  Level FlightAware Approximate
10:21AM 32.0383 -85.5261 17° North 189 217 10,700  Level Atlanta Center
10:22AM 31.9523 -85.4201 10° North  Level FlightAware Approximate
10:22AM 32.0947 -85.5072 16° North 189 217 10,400  Level Atlanta Center
10:23AM 32.1533 -85.4886 15° North 200 230 9,900 -300 Descending Atlanta Center
10:24AM 32.2078 -85.4750 12° North 200 230 9,900  Level Atlanta Center
10:25AM 32.2644 -85.4536 18° North 200 230 9,900  Level Atlanta Center
10:26AM 32.3169 -85.4372 15° North 200 230 9,900  Level Atlanta Center
10:27AM 32.3714 -85.4208 14° North 200 230 9,900  Level Atlanta Center
10:28AM 32.4258 -85.4022 16° North 200 230 9,900  Level Atlanta Center
10:29AM 32.4822 -85.3858 14° North 200 230 9,900  Level Atlanta Center
10:31AM 32.6000 -85.3500 14° North 210 242 9,900  Level Atlanta TRACON
10:32AM 32.6500 -85.3333 16° North 211 243 9,900  Level Atlanta TRACON
10:33AM 32.7167 -85.3167 12° North 212 244 9,900  Level Atlanta TRACON
10:34AM 32.7667 -85.3000 16° North 212 244 9,900  Level Atlanta TRACON
10:35AM 32.8167 -85.2833 16° North 216 249 9,900  Level Atlanta TRACON
10:36AM 32.8833 -85.2667 12° North 215 247 9,900  Level Atlanta TRACON
10:37AM 32.9333 -85.2333 29° Northeast 215 247 9,900  Level Atlanta TRACON
10:38AM 33.0000 -85.2167 12° North 219 252 9,900 -300 Level Atlanta TRACON
10:39AM 33.0500 -85.2000 16° North 227 261 9,400 -600 Descending Atlanta TRACON
10:40AM 33.1167 -85.1833 12° North 235 270 8,800 -600 Descending Atlanta TRACON
10:41AM 33.1833 -85.1667 12° North 230 265 8,200 -600 Descending Atlanta TRACON
10:42AM 33.2500 -85.1500 12° North 224 258 7,600 -480 Descending Atlanta TRACON
10:43AM 33.3000 -85.1333 16° North 217 250 7,300 -360 Descending Atlanta TRACON
10:44AM 33.3667 -85.1167 12° North 203 234 6,900 -600 Descending Atlanta TRACON
10:45AM 33.4167 -85.1000 16° North 206 237 6,200 -780 Descending Atlanta TRACON
10:46AM 33.4667 -85.1000 360° North 205 236 5,500 -600 Descending Atlanta TRACON
10:47AM 33.5333 -85.0833 12° North 212 244 5,000 -240 Descending Atlanta TRACON
10:48AM 33.5833 -85.0667 16° North 191 220 5,000 -60 Level Atlanta TRACON
10:49AM 33.6333 -85.0500 16° North 189 217 4,900  Descending Atlanta TRACON
10:50AM 33.6833 -85.0500 360° North 189 217 5,000  Climbing Atlanta TRACON
10:51AM 33.7333 -85.0333 15° North 191 220 5,000  Level Atlanta TRACON
10:52AM 33.7833 -85.0167 15° North 183 211 5,000  Level Atlanta TRACON
10:53AM 33.8167 -84.9833 40° Northeast 183 211 5,000  Level Atlanta TRACON
10:54AM 33.8500 -84.9333 51° Northeast 183 211 5,000  Level Atlanta TRACON
10:55AM 33.8667 -84.8833 68° East 200 230 5,000  Level Atlanta TRACON
10:56AM 33.9000 -84.8333 51° Northeast 179 206 5,000  Level Atlanta TRACON
10:57AM 33.9333 -84.7833 51° Northeast 182 209 5,000  Level Atlanta TRACON
10:58AM 33.9500 -84.7500 59° Northeast 181 208 5,000  Level Atlanta TRACON
10:59AM 33.9667 -84.6833 73° East 183 211 5,000  Level Atlanta TRACON
11:00AM 34.0000 -84.6167 59° Northeast 176 203 5,000  Level Atlanta TRACON
11:01AM 34.0167 -84.5833 59° Northeast 178 205 5,000 -120 Level Atlanta TRACON
11:02AM 34.0333 -84.5167 73° East 184 212 4,800 -420 Descending Atlanta TRACON
11:03AM 34.0500 -84.4500 73° East 188 216 4,200 -420 Descending Atlanta TRACON
11:04AM 34.0500 -84.4000 90° East 175 201 4,000 -420 Descending Atlanta TRACON
11:05AM 34.0500 -84.3500 90° East 166 191 3,500 -540 Descending Atlanta TRACON
11:06AM 34.0500 -84.2833 90° East 173 199 3,000 -300 Descending Atlanta TRACON
11:07AM 34.0500 -84.2500 90° East 146 168 3,000 -60 Level Atlanta TRACON
11:08AM 34.0167 -84.2500 180° South 109 125 2,900 -60 Descending Atlanta TRACON
11:09AM 34.0167 -84.3000 270° West 154 177 2,900 120 Level Atlanta TRACON
11:10AM 34.0333 -84.3333 301° West 162 186 3,200 480 Climbing Atlanta TRACON
11:11AM 34.0667 -84.3333 360° North 154 177 3,900 360 Climbing Atlanta TRACON
11:12AM 34.1167 -84.3333 360° North 172 198 4,000  Climbing Atlanta TRACON
11:13AM 34.1500 -84.3000 40° Northeast 184 212 4,000  Level Atlanta TRACON
11:14AM 34.1167 -84.2500 129° Southeast 128 147 4,000 -180 Level Atlanta TRACON
11:15AM 34.1000 -84.2333 140° Southeast 128 147 3,700 -480 Descending Atlanta TRACON
11:16AM 34.0667 -84.2333 180° South 130 150 3,100 -360 Descending Atlanta TRACON
11:17AM 34.0333 -84.2333 180° South 109 125 3,000 -60 Descending Atlanta TRACON
11:18AM 34.0167 -84.2500 220° Southwest 105 121 3,000  Level Atlanta TRACON
11:19AM 33.9833 -84.2500 180° South 124 143 3,000 -360 Level Atlanta TRACON
11:20AM 33.9500 -84.2667 203° Southwest 101 116 2,300 -600 Descending Atlanta TRACON
11:21AM 33.9333 -84.2833 220° Southwest 98 113 1,900 -480 Descending Atlanta TRACON